sensor_id;sensor_type;location;lat;lon;timestamp;temperature;humidity
76211;DHT22;65003;49.518;11.280;2024-01-11T10:00:18;4.00;99.90
76211;DHT22;65003;49.518;11.280;2024-01-11T10:02:45;4.70;97.50
76211;DHT22;65003;49.518;11.280;2024-01-11T10:05:11;5.30;95.30
76211;DHT22;65003;49.518;11.280;2024-01-11T10:07:37;5.90;96.30
76211;DHT22;65003;49.518;11.280;2024-01-11T10:10:04;6.50;94.00
76211;DHT22;65003;49.518;11.280;2024-01-11T10:12:31;7.00;92.70
76211;DHT22;65003;49.518;11.280;2024-01-11T10:15:04;7.50;96.90
76211;DHT22;65003;49.518;11.280;2024-01-11T10:17:24;8.10;92.20
76211;DHT22;65003;49.518;11.280;2024-01-11T10:19:52;8.60;85.70
76211;DHT22;65003;49.518;11.280;2024-01-11T10:22:17;9.20;78.30
76211;DHT22;65003;49.518;11.280;2024-01-11T10:24:44;9.40;77.10
76211;DHT22;65003;49.518;11.280;2024-01-11T10:27:11;9.50;75.60
76211;DHT22;65003;49.518;11.280;2024-01-11T10:29:37;9.60;74.30
76211;DHT22;65003;49.518;11.280;2024-01-11T10:32:04;9.40;75.40
76211;DHT22;65003;49.518;11.280;2024-01-11T10:34:32;9.50;73.90
76211;DHT22;65003;49.518;11.280;2024-01-11T10:36:58;9.80;72.60
76211;DHT22;65003;49.518;11.280;2024-01-11T10:39:25;10.20;74.10
76211;DHT22;65003;49.518;11.280;2024-01-11T10:41:59;10.50;73.80
76211;DHT22;65003;49.518;11.280;2024-01-11T10:44:19;10.90;67.20
76211;DHT22;65003;49.518;11.280;2024-01-11T10:46:45;11.00;67.00
76211;DHT22;65003;49.518;11.280;2024-01-11T10:49:13;10.90;67.70
76211;DHT22;65003;49.518;11.280;2024-01-11T10:51:39;11.00;67.10
76211;DHT22;65003;49.518;11.280;2024-01-11T10:54:05;10.50;68.00
76211;DHT22;65003;49.518;11.280;2024-01-11T10:56:32;9.90;69.20
76211;DHT22;65003;49.518;11.280;2024-01-11T10:58:58;9.50;70.50
76211;DHT22;65003;49.518;11.280;2024-01-11T11:01:25;9.60;71.00
76211;DHT22;65003;49.518;11.280;2024-01-11T11:03:52;9.70;70.40
76211;DHT22;65003;49.518;11.280;2024-01-11T11:06:18;9.70;70.50
76211;DHT22;65003;49.518;11.280;2024-01-11T11:08:45;10.00;70.00
76211;DHT22;65003;49.518;11.280;2024-01-11T11:11:11;9.80;69.90
76211;DHT22;65003;49.518;11.280;2024-01-11T11:13:38;9.20;72.30
76211;DHT22;65003;49.518;11.280;2024-01-11T11:16:06;9.00;76.70
76211;DHT22;65003;49.518;11.280;2024-01-11T11:18:32;9.20;76.40
76211;DHT22;65003;49.518;11.280;2024-01-11T11:20:59;9.40;75.20
76211;DHT22;65003;49.518;11.280;2024-01-11T11:23:25;9.40;74.40
76211;DHT22;65003;49.518;11.280;2024-01-11T11:25:54;9.50;74.20
76211;DHT22;65003;49.518;11.280;2024-01-11T11:28:19;9.60;74.40
76211;DHT22;65003;49.518;11.280;2024-01-11T11:30:48;9.40;74.30
76211;DHT22;65003;49.518;11.280;2024-01-11T11:33:19;9.30;74.00
76211;DHT22;65003;49.518;11.280;2024-01-11T11:35:46;9.30;75.10
76211;DHT22;65003;49.518;11.280;2024-01-11T11:38:18;9.20;76.10
76211;DHT22;65003;49.518;11.280;2024-01-11T11:40:45;9.20;76.00
76211;DHT22;65003;49.518;11.280;2024-01-11T11:43:11;9.00;77.50
76211;DHT22;65003;49.518;11.280;2024-01-11T11:45:37;8.80;79.20
76211;DHT22;65003;49.518;11.280;2024-01-11T11:53:34;8.70;81.30
76211;DHT22;65003;49.518;11.280;2024-01-11T11:56:01;8.70;81.40
76211;DHT22;65003;49.518;11.280;2024-01-11T11:58:28;8.80;80.90
76211;DHT22;65003;49.518;11.280;2024-01-11T12:00:55;8.70;80.80
76211;DHT22;65003;49.518;11.280;2024-01-11T12:03:23;8.60;80.90
76211;DHT22;65003;49.518;11.280;2024-01-11T12:05:48;8.70;81.30
76211;DHT22;65003;49.518;11.280;2024-01-11T12:08:14;8.70;82.30
76211;DHT22;65003;49.518;11.280;2024-01-11T12:10:41;8.70;81.60
76211;DHT22;65003;49.518;11.280;2024-01-11T12:13:07;8.90;82.90
76211;DHT22;65003;49.518;11.280;2024-01-11T12:15:34;8.80;82.20
76211;DHT22;65003;49.518;11.280;2024-01-11T12:18:01;8.70;82.20
76211;DHT22;65003;49.518;11.280;2024-01-11T12:20:28;8.80;82.30
76211;DHT22;65003;49.518;11.280;2024-01-11T12:22:54;8.90;82.40
76211;DHT22;65003;49.518;11.280;2024-01-11T12:25:20;9.00;81.10
76211;DHT22;65003;49.518;11.280;2024-01-11T12:27:47;9.00;80.70
76211;DHT22;65003;49.518;11.280;2024-01-11T12:30:14;9.10;81.00
76211;DHT22;65003;49.518;11.280;2024-01-11T12:32:40;9.00;82.00
76211;DHT22;65003;49.518;11.280;2024-01-11T12:35:07;8.90;82.40
76211;DHT22;65003;49.518;11.280;2024-01-11T12:37:34;8.90;81.70
76211;DHT22;65003;49.518;11.280;2024-01-11T12:40:00;8.80;82.00
76211;DHT22;65003;49.518;11.280;2024-01-11T12:42:27;8.70;82.70
76211;DHT22;65003;49.518;11.280;2024-01-11T12:44:53;8.60;84.30
76211;DHT22;65003;49.518;11.280;2024-01-11T12:47:20;8.60;85.10
76211;DHT22;65003;49.518;11.280;2024-01-11T12:49:47;8.50;86.10
76211;DHT22;65003;49.518;11.280;2024-01-11T12:52:17;8.70;86.10
76211;DHT22;65003;49.518;11.280;2024-01-11T12:54:43;8.70;85.60
76211;DHT22;65003;49.518;11.280;2024-01-11T12:57:12;8.70;85.70
76211;DHT22;65003;49.518;11.280;2024-01-11T12:59:39;8.80;85.00
76211;DHT22;65003;49.518;11.280;2024-01-11T13:02:06;8.80;85.40
76211;DHT22;65003;49.518;11.280;2024-01-11T13:04:33;8.90;85.20
76211;DHT22;65003;49.518;11.280;2024-01-11T13:06:59;8.90;84.40
76211;DHT22;65003;49.518;11.280;2024-01-11T13:09:25;8.90;83.80
76211;DHT22;65003;49.518;11.280;2024-01-11T13:11:52;8.90;84.10
76211;DHT22;65003;49.518;11.280;2024-01-11T13:14:18;8.90;84.30
76211;DHT22;65003;49.518;11.280;2024-01-11T13:16:45;8.70;85.00
76211;DHT22;65003;49.518;11.280;2024-01-11T13:19:12;8.60;85.90
76211;DHT22;65003;49.518;11.280;2024-01-11T13:21:38;8.60;86.20
76211;DHT22;65003;49.518;11.280;2024-01-11T13:24:05;8.50;85.70
76211;DHT22;65003;49.518;11.280;2024-01-11T13:26:31;8.40;84.50
76211;DHT22;65003;49.518;11.280;2024-01-11T13:28:58;8.30;82.40
76211;DHT22;65003;49.518;11.280;2024-01-11T13:31:25;8.30;82.50
76211;DHT22;65003;49.518;11.280;2024-01-11T13:33:51;8.30;81.20
76211;DHT22;65003;49.518;11.280;2024-01-11T13:36:18;8.20;79.20
76211;DHT22;65003;49.518;11.280;2024-01-11T13:38:44;8.10;80.40
76211;DHT22;65003;49.518;11.280;2024-01-11T13:41:11;8.10;81.00
76211;DHT22;65003;49.518;11.280;2024-01-11T13:43:37;8.10;81.10
76211;DHT22;65003;49.518;11.280;2024-01-11T13:46:04;8.20;81.10
76211;DHT22;65003;49.518;11.280;2024-01-11T13:48:31;8.30;80.50
76211;DHT22;65003;49.518;11.280;2024-01-11T13:50:58;8.40;80.50
76211;DHT22;65003;49.518;11.280;2024-01-11T13:53:24;8.20;80.70
76211;DHT22;65003;49.518;11.280;2024-01-11T13:55:51;8.10;81.00
76211;DHT22;65003;49.518;11.280;2024-01-11T13:58:17;8.10;80.50
76211;DHT22;65003;49.518;11.280;2024-01-11T14:00:44;8.10;80.40
76211;DHT22;65003;49.518;11.280;2024-01-11T14:03:10;8.00;80.50
76211;DHT22;65003;49.518;11.280;2024-01-11T14:05:37;8.00;80.50
76211;DHT22;65003;49.518;11.280;2024-01-11T14:08:04;7.80;81.00
76211;DHT22;65003;49.518;11.280;2024-01-11T14:10:33;7.70;83.90
76211;DHT22;65003;49.518;11.280;2024-01-11T14:13:00;7.50;85.40
76211;DHT22;65003;49.518;11.280;2024-01-11T14:15:26;7.20;83.90
76211;DHT22;65003;49.518;11.280;2024-01-11T14:17:53;7.10;83.20
76211;DHT22;65003;49.518;11.280;2024-01-11T14:20:19;7.10;82.40
76211;DHT22;65003;49.518;11.280;2024-01-11T14:22:46;7.00;82.80
76211;DHT22;65003;49.518;11.280;2024-01-11T14:25:13;6.90;84.10
76211;DHT22;65003;49.518;11.280;2024-01-11T14:27:40;7.00;83.40
76211;DHT22;65003;49.518;11.280;2024-01-11T14:30:08;6.90;83.30
76211;DHT22;65003;49.518;11.280;2024-01-11T14:32:34;6.70;84.70
76211;DHT22;65003;49.518;11.280;2024-01-11T14:35:01;6.50;88.00
76211;DHT22;65003;49.518;11.280;2024-01-11T14:37:28;6.20;91.70
76211;DHT22;65003;49.518;11.280;2024-01-11T14:39:54;6.00;93.20
76211;DHT22;65003;49.518;11.280;2024-01-11T14:42:21;5.50;94.70
76211;DHT22;65003;49.518;11.280;2024-01-11T14:44:47;5.70;95.20
76211;DHT22;65003;49.518;11.280;2024-01-11T14:47:14;5.60;95.90
